White Pine, MI (49971)

6:13 PM EDT on July 24, 2016 (GMT -0400)
Big Iron River - White Pine, MI. | | Change Station

Elev 940 ft 46.76 °N, 89.59 °W | Updated 5 minutes ago

Partly Cloudy
Partly Cloudy
80.0 °F
Feels Like 82 °F
N
6.1
Wind Variable Wind from North

Today
High -- | Low -- °F
--% Chance of Precip.
Yesterday
High -- | Low -- °F
Precip. -- in
Pressure 29.79 in
Visibility 10.0 miles
Clouds Few 4400 ft
Heat Index 82 °F
Dew Point 66 °F
Humidity 62%
Rainfall 0.00 in
Snow Depth Not available.
6:29 AM 9:39 PM
Waning Gibbous, 72% visible
METAR KIWD 242155Z AUTO 30014KT 10SM FEW044 26/18 A2979 RMK AO1
Pressure 29.79 in
Visibility 10.0 miles
Clouds Few 4400 ft
Heat Index 82 °F
Dew Point 66 °F
Humidity 62%
Rainfall 0.00 in
Snow Depth Not available.
6:29 AM 9:39 PM
Waning Gibbous, 72% visible
METAR KIWD 242155Z AUTO 30014KT 10SM FEW044 26/18 A2979 RMK AO1

10-Day Weather Forecast

Almanac

Astronomy

Jul. 24, 2016 Rise Set
Actual Time
Civil Twilight
Nautical Twilight
Astronomical Twilight
Moon
Length of Visible Light
Length of Day
Tomorrow will be .
, % of the Moon is Illuminated

Today's Extremes

State Highs State Lows

Community

WunderPhotos

Upload Photos

1,927,202 photos uploaded!

WunderBlog® & News

Nearby

Air Quality

  Air Quality AQ Index Pollutant
Not available.

Snow Depth

Station Depth Elevation

Earthquake Activity

City Distance Mag. Time & Date
Minimum magnitude displayed is 2.5.

Coastal Water Temperatures

Place Temperature

Stations

Nearby Weather Stations

Station Location Temp. Windchill Dew Point Humidity Wind Precip. Elev Updated Type
                   

Watches & Warnings

There are currently no watches in effect.